메인 페이지
METAR-TAF:

METAR-TAF

공항 :

청주국제공항

청주, 대한민국

위도: 36-42N, 경도: 127-30E, 고도: 58m

현재 날씨관측

예보는 50분 전, 08:00시(UTC)에 발표되었습니다.
동남동6kt
온도 20°C
습도 60%
기압 1016 hPa
시정 10km 이상
고도 4000ft 상공 구름 조금
고도 20000ft 상공 구름 많음

METAR: RKTU 210800Z 12006KT 9999 FEW040 BKN200 20/12 Q1016 NOSIG

시각: 17:50 (08:50 UTC)

예보

예보는 3 시간 50분 전, 05:00시(UTC)에 발표되었습니다.
예보 대상 시간: 21일 06시부터 22일 12시까지 (UTC)
남남동10kt
시정 10km 이상
고도 3000ft 상공 구름 보통
고도 20000ft 상공 구름 많음
전환 중
21일 08시부터 21일 09시까지 (UTC)
남남동6kt
전환 중
21일 10시부터 21일 11시까지 (UTC)
남남동10kt
전환 중
22일 06시부터 22일 07시까지 (UTC)
6kt
시정 10km 이상
1500m 미만 상공 구름 및 적란운 없음
전환 중
22일 09시부터 22일 10시까지 (UTC)
시정: 4800m
고도 3000ft 상공 구름 많음
고도 10000ft 상공 구름 많음
약한비, 박무

TAF: RKTU 210500Z 2106/2212 15010KT 9999 SCT030 BKN200 TN11/2121Z TX25/2206Z BECMG 2108/2109 15006KT BECMG 2110/2111 15010KT BECMG 2206/2207 18006KT CAVOK BECMG 2209/2210 4800 -RA BR BKN030 BKN100

4,000개 이상의 공항 관측 자료 및 예보 (METAR 및 TAF 보고).

지도상에서 검색 가능한 기상관측소가 노란 점과 빨간 점으로 표시되어 있습니다.

기상관측소 명을 보려면 표시 위로 마우스를 이동하세요.

날씨 관측과 예보를 보려면 클릭하세요.

지도 변경 : 확대하려면 엑스 표시가 있는 녹색 버튼, 축소하려면 빼기 표시가 있는 녹색 버튼, 다음 페이지의 지도를 보려면 녹색 화살표를 클릭하세요.


METAR-TAF: